sensor_id;sensor_type;location;lat;lon;timestamp;P1;durP1;ratioP1;P2;durP2;ratioP2
23288;SDS011;11813;50.834;4.280;2022-12-11T00:01:59;31.60;;;14.47;;
23288;SDS011;11813;50.834;4.280;2022-12-11T00:04:25;30.60;;;14.63;;
23288;SDS011;11813;50.834;4.280;2022-12-11T00:06:51;29.13;;;14.67;;
23288;SDS011;11813;50.834;4.280;2022-12-11T00:09:17;25.33;;;13.67;;
23288;SDS011;11813;50.834;4.280;2022-12-11T00:11:43;27.83;;;13.50;;
23288;SDS011;11813;50.834;4.280;2022-12-11T00:14:10;25.80;;;13.13;;
23288;SDS011;11813;50.834;4.280;2022-12-11T00:16:36;30.13;;;12.97;;
23288;SDS011;11813;50.834;4.280;2022-12-11T00:19:01;31.83;;;15.50;;
23288;SDS011;11813;50.834;4.280;2022-12-11T00:21:27;29.40;;;14.37;;
23288;SDS011;11813;50.834;4.280;2022-12-11T00:23:53;31.87;;;13.57;;
23288;SDS011;11813;50.834;4.280;2022-12-11T00:26:19;30.03;;;14.07;;
23288;SDS011;11813;50.834;4.280;2022-12-11T00:28:44;28.30;;;13.70;;
23288;SDS011;11813;50.834;4.280;2022-12-11T00:31:12;29.83;;;13.93;;
23288;SDS011;11813;50.834;4.280;2022-12-11T00:33:42;28.60;;;13.57;;
23288;SDS011;11813;50.834;4.280;2022-12-11T00:36:10;29.33;;;15.07;;
23288;SDS011;11813;50.834;4.280;2022-12-11T00:38:37;28.00;;;13.63;;
23288;SDS011;11813;50.834;4.280;2022-12-11T00:41:03;29.83;;;13.87;;
23288;SDS011;11813;50.834;4.280;2022-12-11T00:43:28;25.07;;;13.37;;
23288;SDS011;11813;50.834;4.280;2022-12-11T00:45:54;27.47;;;13.00;;
23288;SDS011;11813;50.834;4.280;2022-12-11T00:48:20;31.10;;;14.07;;
23288;SDS011;11813;50.834;4.280;2022-12-11T00:50:46;29.83;;;13.60;;
23288;SDS011;11813;50.834;4.280;2022-12-11T00:53:11;26.07;;;13.97;;
23288;SDS011;11813;50.834;4.280;2022-12-11T00:55:38;27.80;;;13.87;;
23288;SDS011;11813;50.834;4.280;2022-12-11T00:58:05;25.93;;;13.03;;
23288;SDS011;11813;50.834;4.280;2022-12-11T01:00:31;28.37;;;14.30;;
23288;SDS011;11813;50.834;4.280;2022-12-11T01:02:57;29.50;;;14.63;;
23288;SDS011;11813;50.834;4.280;2022-12-11T01:05:22;31.10;;;14.37;;
23288;SDS011;11813;50.834;4.280;2022-12-11T01:07:48;31.27;;;14.77;;
23288;SDS011;11813;50.834;4.280;2022-12-11T01:10:14;29.50;;;14.30;;
23288;SDS011;11813;50.834;4.280;2022-12-11T01:12:49;30.73;;;14.33;;
23288;SDS011;11813;50.834;4.280;2022-12-11T01:15:14;30.50;;;13.33;;
23288;SDS011;11813;50.834;4.280;2022-12-11T01:17:40;29.30;;;13.97;;
23288;SDS011;11813;50.834;4.280;2022-12-11T01:20:06;30.33;;;15.07;;
23288;SDS011;11813;50.834;4.280;2022-12-11T01:22:32;33.00;;;14.83;;
23288;SDS011;11813;50.834;4.280;2022-12-11T01:24:57;23.63;;;12.73;;
23288;SDS011;11813;50.834;4.280;2022-12-11T01:27:23;32.37;;;14.73;;
23288;SDS011;11813;50.834;4.280;2022-12-11T01:29:48;28.50;;;14.33;;
23288;SDS011;11813;50.834;4.280;2022-12-11T01:32:14;27.10;;;13.23;;
23288;SDS011;11813;50.834;4.280;2022-12-11T01:34:40;32.27;;;14.73;;
23288;SDS011;11813;50.834;4.280;2022-12-11T01:37:06;32.13;;;15.10;;
23288;SDS011;11813;50.834;4.280;2022-12-11T01:39:31;28.43;;;15.10;;
23288;SDS011;11813;50.834;4.280;2022-12-11T01:41:58;28.23;;;13.80;;
23288;SDS011;11813;50.834;4.280;2022-12-11T01:46:50;34.17;;;15.20;;
23288;SDS011;11813;50.834;4.280;2022-12-11T01:49:16;29.33;;;14.63;;
23288;SDS011;11813;50.834;4.280;2022-12-11T01:51:48;31.57;;;14.93;;
23288;SDS011;11813;50.834;4.280;2022-12-11T01:54:14;30.40;;;14.07;;
23288;SDS011;11813;50.834;4.280;2022-12-11T01:56:42;35.33;;;15.83;;
23288;SDS011;11813;50.834;4.280;2022-12-11T01:59:10;37.30;;;17.30;;
23288;SDS011;11813;50.834;4.280;2022-12-11T02:01:48;31.70;;;15.67;;
23288;SDS011;11813;50.834;4.280;2022-12-11T02:04:19;34.10;;;15.17;;
23288;SDS011;11813;50.834;4.280;2022-12-11T02:06:46;32.63;;;15.03;;
23288;SDS011;11813;50.834;4.280;2022-12-11T02:09:15;29.37;;;14.50;;
23288;SDS011;11813;50.834;4.280;2022-12-11T02:11:52;33.03;;;15.93;;
23288;SDS011;11813;50.834;4.280;2022-12-11T02:17:43;30.37;;;15.53;;
23288;SDS011;11813;50.834;4.280;2022-12-11T02:20:27;27.33;;;14.40;;
23288;SDS011;11813;50.834;4.280;2022-12-11T02:25:56;31.20;;;15.53;;
23288;SDS011;11813;50.834;4.280;2022-12-11T02:28:42;30.40;;;15.50;;
23288;SDS011;11813;50.834;4.280;2022-12-11T02:31:18;32.47;;;14.87;;
23288;SDS011;11813;50.834;4.280;2022-12-11T02:34:07;33.30;;;14.83;;
23288;SDS011;11813;50.834;4.280;2022-12-11T02:36:43;34.30;;;15.53;;
23288;SDS011;11813;50.834;4.280;2022-12-11T02:39:12;31.63;;;15.53;;
23288;SDS011;11813;50.834;4.280;2022-12-11T02:41:41;32.77;;;14.50;;
23288;SDS011;11813;50.834;4.280;2022-12-11T02:44:11;33.00;;;14.63;;
23288;SDS011;11813;50.834;4.280;2022-12-11T02:46:39;29.70;;;14.87;;
23288;SDS011;11813;50.834;4.280;2022-12-11T02:49:06;30.63;;;15.33;;
23288;SDS011;11813;50.834;4.280;2022-12-11T02:51:35;34.77;;;16.13;;
23288;SDS011;11813;50.834;4.280;2022-12-11T02:54:03;37.90;;;16.33;;
23288;SDS011;11813;50.834;4.280;2022-12-11T02:57:07;37.17;;;17.60;;
23288;SDS011;11813;50.834;4.280;2022-12-11T02:59:38;32.30;;;15.80;;
23288;SDS011;11813;50.834;4.280;2022-12-11T03:02:06;41.77;;;17.57;;
23288;SDS011;11813;50.834;4.280;2022-12-11T03:04:32;33.30;;;15.87;;
23288;SDS011;11813;50.834;4.280;2022-12-11T03:07:02;37.60;;;17.03;;
23288;SDS011;11813;50.834;4.280;2022-12-11T03:09:36;33.73;;;15.93;;
23288;SDS011;11813;50.834;4.280;2022-12-11T03:12:06;34.40;;;17.03;;
23288;SDS011;11813;50.834;4.280;2022-12-11T03:14:35;34.43;;;16.23;;
23288;SDS011;11813;50.834;4.280;2022-12-11T03:17:04;37.30;;;16.27;;
23288;SDS011;11813;50.834;4.280;2022-12-11T03:22:24;36.57;;;16.60;;
23288;SDS011;11813;50.834;4.280;2022-12-11T03:25:04;33.27;;;16.10;;
23288;SDS011;11813;50.834;4.280;2022-12-11T03:27:47;36.10;;;17.33;;
23288;SDS011;11813;50.834;4.280;2022-12-11T03:30:21;36.90;;;17.00;;
23288;SDS011;11813;50.834;4.280;2022-12-11T03:32:50;34.57;;;17.00;;
23288;SDS011;11813;50.834;4.280;2022-12-11T03:35:22;40.10;;;17.43;;
23288;SDS011;11813;50.834;4.280;2022-12-11T03:38:27;36.13;;;17.27;;
23288;SDS011;11813;50.834;4.280;2022-12-11T03:40:59;37.07;;;16.73;;
23288;SDS011;11813;50.834;4.280;2022-12-11T03:43:27;37.40;;;17.27;;
23288;SDS011;11813;50.834;4.280;2022-12-11T03:45:54;34.13;;;15.93;;
23288;SDS011;11813;50.834;4.280;2022-12-11T03:48:22;33.90;;;16.53;;
23288;SDS011;11813;50.834;4.280;2022-12-11T03:50:51;40.03;;;17.57;;
23288;SDS011;11813;50.834;4.280;2022-12-11T03:53:17;40.30;;;17.77;;
23288;SDS011;11813;50.834;4.280;2022-12-11T03:55:44;41.90;;;17.00;;
23288;SDS011;11813;50.834;4.280;2022-12-11T03:58:13;38.27;;;17.13;;
23288;SDS011;11813;50.834;4.280;2022-12-11T04:00:38;33.20;;;16.50;;
23288;SDS011;11813;50.834;4.280;2022-12-11T04:03:04;36.23;;;16.73;;
23288;SDS011;11813;50.834;4.280;2022-12-11T04:05:39;36.73;;;16.83;;
23288;SDS011;11813;50.834;4.280;2022-12-11T04:08:06;39.97;;;17.03;;
23288;SDS011;11813;50.834;4.280;2022-12-11T04:10:32;37.10;;;17.80;;
23288;SDS011;11813;50.834;4.280;2022-12-11T04:12:57;40.87;;;17.93;;
23288;SDS011;11813;50.834;4.280;2022-12-11T04:15:23;39.93;;;17.33;;
23288;SDS011;11813;50.834;4.280;2022-12-11T04:17:49;37.80;;;17.30;;
23288;SDS011;11813;50.834;4.280;2022-12-11T04:20:32;39.77;;;18.17;;
23288;SDS011;11813;50.834;4.280;2022-12-11T04:23:17;48.10;;;18.70;;
23288;SDS011;11813;50.834;4.280;2022-12-11T04:26:11;39.33;;;18.23;;
23288;SDS011;11813;50.834;4.280;2022-12-11T04:28:39;40.80;;;18.83;;
23288;SDS011;11813;50.834;4.280;2022-12-11T04:31:09;36.17;;;18.50;;
23288;SDS011;11813;50.834;4.280;2022-12-11T04:33:36;42.73;;;18.30;;
23288;SDS011;11813;50.834;4.280;2022-12-11T04:36:02;39.03;;;18.17;;
23288;SDS011;11813;50.834;4.280;2022-12-11T04:38:27;38.87;;;18.63;;
23288;SDS011;11813;50.834;4.280;2022-12-11T04:40:59;40.57;;;17.60;;
23288;SDS011;11813;50.834;4.280;2022-12-11T04:43:32;42.50;;;17.90;;
23288;SDS011;11813;50.834;4.280;2022-12-11T04:46:08;38.43;;;16.57;;
23288;SDS011;11813;50.834;4.280;2022-12-11T04:48:42;42.47;;;18.77;;
23288;SDS011;11813;50.834;4.280;2022-12-11T04:51:08;44.97;;;18.70;;
23288;SDS011;11813;50.834;4.280;2022-12-11T04:53:35;44.27;;;19.07;;
23288;SDS011;11813;50.834;4.280;2022-12-11T04:56:03;40.97;;;18.87;;
23288;SDS011;11813;50.834;4.280;2022-12-11T04:58:30;48.00;;;19.07;;
23288;SDS011;11813;50.834;4.280;2022-12-11T05:00:56;49.47;;;18.33;;
23288;SDS011;11813;50.834;4.280;2022-12-11T05:03:21;43.20;;;20.17;;
23288;SDS011;11813;50.834;4.280;2022-12-11T05:05:48;47.43;;;18.97;;
23288;SDS011;11813;50.834;4.280;2022-12-11T05:08:15;39.03;;;19.10;;
23288;SDS011;11813;50.834;4.280;2022-12-11T05:10:43;44.33;;;18.50;;
23288;SDS011;11813;50.834;4.280;2022-12-11T05:13:09;38.20;;;18.40;;
23288;SDS011;11813;50.834;4.280;2022-12-11T05:15:37;46.73;;;19.80;;
23288;SDS011;11813;50.834;4.280;2022-12-11T05:18:03;41.60;;;18.93;;
23288;SDS011;11813;50.834;4.280;2022-12-11T05:20:29;41.33;;;18.37;;
23288;SDS011;11813;50.834;4.280;2022-12-11T05:22:54;43.40;;;17.93;;
23288;SDS011;11813;50.834;4.280;2022-12-11T05:25:20;38.63;;;18.43;;
23288;SDS011;11813;50.834;4.280;2022-12-11T05:27:45;39.77;;;17.77;;
23288;SDS011;11813;50.834;4.280;2022-12-11T05:30:11;48.83;;;19.27;;
23288;SDS011;11813;50.834;4.280;2022-12-11T05:32:36;47.53;;;18.90;;
23288;SDS011;11813;50.834;4.280;2022-12-11T05:35:02;37.60;;;19.17;;
23288;SDS011;11813;50.834;4.280;2022-12-11T05:37:28;41.57;;;17.43;;
23288;SDS011;11813;50.834;4.280;2022-12-11T05:39:53;38.97;;;18.77;;
23288;SDS011;11813;50.834;4.280;2022-12-11T05:42:19;40.80;;;18.07;;
23288;SDS011;11813;50.834;4.280;2022-12-11T05:44:44;42.70;;;19.57;;
23288;SDS011;11813;50.834;4.280;2022-12-11T05:47:10;47.90;;;19.23;;
23288;SDS011;11813;50.834;4.280;2022-12-11T05:49:36;41.40;;;17.53;;
23288;SDS011;11813;50.834;4.280;2022-12-11T05:52:01;39.83;;;18.57;;
23288;SDS011;11813;50.834;4.280;2022-12-11T05:54:27;43.10;;;19.23;;
23288;SDS011;11813;50.834;4.280;2022-12-11T05:56:52;40.07;;;17.87;;
23288;SDS011;11813;50.834;4.280;2022-12-11T05:59:18;43.63;;;19.83;;
23288;SDS011;11813;50.834;4.280;2022-12-11T06:01:44;46.90;;;19.23;;
23288;SDS011;11813;50.834;4.280;2022-12-11T06:04:10;45.83;;;18.73;;
23288;SDS011;11813;50.834;4.280;2022-12-11T06:06:36;41.77;;;18.27;;
23288;SDS011;11813;50.834;4.280;2022-12-11T06:09:03;43.53;;;18.73;;
23288;SDS011;11813;50.834;4.280;2022-12-11T06:11:30;42.30;;;18.47;;
23288;SDS011;11813;50.834;4.280;2022-12-11T06:13:57;41.47;;;18.33;;
23288;SDS011;11813;50.834;4.280;2022-12-11T06:16:24;39.27;;;19.23;;
23288;SDS011;11813;50.834;4.280;2022-12-11T06:18:50;44.13;;;20.03;;
23288;SDS011;11813;50.834;4.280;2022-12-11T06:21:20;42.30;;;19.23;;
23288;SDS011;11813;50.834;4.280;2022-12-11T06:23:48;39.10;;;18.47;;
23288;SDS011;11813;50.834;4.280;2022-12-11T06:26:15;46.87;;;19.43;;
23288;SDS011;11813;50.834;4.280;2022-12-11T06:28:41;49.10;;;20.27;;
23288;SDS011;11813;50.834;4.280;2022-12-11T06:31:07;46.67;;;19.57;;
23288;SDS011;11813;50.834;4.280;2022-12-11T06:33:33;48.73;;;20.07;;
23288;SDS011;11813;50.834;4.280;2022-12-11T06:36:02;46.07;;;19.60;;
23288;SDS011;11813;50.834;4.280;2022-12-11T06:38:39;48.93;;;19.70;;
23288;SDS011;11813;50.834;4.280;2022-12-11T06:41:05;43.23;;;19.23;;
23288;SDS011;11813;50.834;4.280;2022-12-11T06:43:32;43.33;;;18.57;;
23288;SDS011;11813;50.834;4.280;2022-12-11T06:46:06;54.70;;;20.97;;
23288;SDS011;11813;50.834;4.280;2022-12-11T06:48:40;50.17;;;19.63;;
23288;SDS011;11813;50.834;4.280;2022-12-11T06:51:07;55.03;;;21.17;;
23288;SDS011;11813;50.834;4.280;2022-12-11T06:53:35;46.33;;;18.80;;
23288;SDS011;11813;50.834;4.280;2022-12-11T06:56:01;44.93;;;20.00;;
23288;SDS011;11813;50.834;4.280;2022-12-11T06:58:33;46.83;;;20.17;;
23288;SDS011;11813;50.834;4.280;2022-12-11T07:00:59;45.17;;;19.17;;
23288;SDS011;11813;50.834;4.280;2022-12-11T07:03:26;43.63;;;18.87;;
23288;SDS011;11813;50.834;4.280;2022-12-11T07:05:52;43.93;;;18.57;;
23288;SDS011;11813;50.834;4.280;2022-12-11T07:08:17;45.10;;;19.10;;
23288;SDS011;11813;50.834;4.280;2022-12-11T07:10:43;40.07;;;15.83;;
23288;SDS011;11813;50.834;4.280;2022-12-11T07:13:08;49.63;;;19.17;;
23288;SDS011;11813;50.834;4.280;2022-12-11T07:15:34;43.73;;;16.43;;
23288;SDS011;11813;50.834;4.280;2022-12-11T07:18:00;47.80;;;19.10;;
23288;SDS011;11813;50.834;4.280;2022-12-11T07:20:26;43.17;;;19.37;;
23288;SDS011;11813;50.834;4.280;2022-12-11T07:22:52;45.80;;;18.60;;
23288;SDS011;11813;50.834;4.280;2022-12-11T07:25:18;47.20;;;17.37;;
23288;SDS011;11813;50.834;4.280;2022-12-11T07:27:43;44.93;;;17.87;;
23288;SDS011;11813;50.834;4.280;2022-12-11T07:30:09;42.83;;;18.13;;
23288;SDS011;11813;50.834;4.280;2022-12-11T07:32:35;41.67;;;17.03;;
23288;SDS011;11813;50.834;4.280;2022-12-11T07:35:01;44.10;;;17.97;;
23288;SDS011;11813;50.834;4.280;2022-12-11T07:37:27;43.93;;;18.87;;
23288;SDS011;11813;50.834;4.280;2022-12-11T07:39:53;39.73;;;17.00;;
23288;SDS011;11813;50.834;4.280;2022-12-11T07:42:18;41.27;;;18.23;;
23288;SDS011;11813;50.834;4.280;2022-12-11T07:44:44;42.17;;;17.77;;
23288;SDS011;11813;50.834;4.280;2022-12-11T07:47:09;49.47;;;17.13;;
23288;SDS011;11813;50.834;4.280;2022-12-11T07:49:35;42.33;;;18.23;;
23288;SDS011;11813;50.834;4.280;2022-12-11T07:52:00;44.73;;;19.33;;
23288;SDS011;11813;50.834;4.280;2022-12-11T07:54:26;45.40;;;17.33;;
23288;SDS011;11813;50.834;4.280;2022-12-11T07:56:52;48.67;;;17.57;;
23288;SDS011;11813;50.834;4.280;2022-12-11T07:59:17;45.00;;;17.10;;
23288;SDS011;11813;50.834;4.280;2022-12-11T08:01:43;42.80;;;18.23;;
23288;SDS011;11813;50.834;4.280;2022-12-11T08:04:09;44.77;;;18.63;;
23288;SDS011;11813;50.834;4.280;2022-12-11T08:06:36;43.10;;;17.83;;
23288;SDS011;11813;50.834;4.280;2022-12-11T08:09:04;47.77;;;18.80;;
23288;SDS011;11813;50.834;4.280;2022-12-11T08:11:32;45.27;;;18.43;;
23288;SDS011;11813;50.834;4.280;2022-12-11T08:13:58;43.97;;;19.07;;
23288;SDS011;11813;50.834;4.280;2022-12-11T08:16:24;51.37;;;18.50;;
23288;SDS011;11813;50.834;4.280;2022-12-11T08:18:50;43.03;;;17.57;;
23288;SDS011;11813;50.834;4.280;2022-12-11T08:21:17;40.43;;;17.83;;
23288;SDS011;11813;50.834;4.280;2022-12-11T08:23:44;39.80;;;16.87;;
23288;SDS011;11813;50.834;4.280;2022-12-11T08:26:11;45.33;;;18.93;;
23288;SDS011;11813;50.834;4.280;2022-12-11T08:28:38;44.90;;;17.67;;
23288;SDS011;11813;50.834;4.280;2022-12-11T08:31:06;48.77;;;17.57;;
23288;SDS011;11813;50.834;4.280;2022-12-11T08:33:34;43.47;;;18.33;;
23288;SDS011;11813;50.834;4.280;2022-12-11T08:36:04;43.27;;;16.17;;
23288;SDS011;11813;50.834;4.280;2022-12-11T08:38:31;41.27;;;17.50;;
23288;SDS011;11813;50.834;4.280;2022-12-11T08:40:57;44.57;;;17.90;;
23288;SDS011;11813;50.834;4.280;2022-12-11T08:43:23;43.07;;;19.00;;
23288;SDS011;11813;50.834;4.280;2022-12-11T08:45:49;43.20;;;17.77;;
23288;SDS011;11813;50.834;4.280;2022-12-11T08:48:15;46.40;;;19.13;;
23288;SDS011;11813;50.834;4.280;2022-12-11T08:50:41;40.27;;;17.37;;
23288;SDS011;11813;50.834;4.280;2022-12-11T08:53:06;46.23;;;16.80;;
23288;SDS011;11813;50.834;4.280;2022-12-11T08:55:32;43.47;;;18.77;;
23288;SDS011;11813;50.834;4.280;2022-12-11T08:57:58;44.87;;;16.90;;
23288;SDS011;11813;50.834;4.280;2022-12-11T09:00:24;36.73;;;16.67;;
23288;SDS011;11813;50.834;4.280;2022-12-11T09:02:49;43.13;;;18.03;;
23288;SDS011;11813;50.834;4.280;2022-12-11T09:05:15;40.37;;;17.07;;
23288;SDS011;11813;50.834;4.280;2022-12-11T09:07:41;38.23;;;15.77;;
23288;SDS011;11813;50.834;4.280;2022-12-11T09:10:07;42.00;;;17.30;;
23288;SDS011;11813;50.834;4.280;2022-12-11T09:12:34;39.63;;;16.00;;
23288;SDS011;11813;50.834;4.280;2022-12-11T09:15:01;38.70;;;16.23;;
23288;SDS011;11813;50.834;4.280;2022-12-11T09:17:28;39.17;;;16.73;;
23288;SDS011;11813;50.834;4.280;2022-12-11T09:19:53;36.87;;;16.53;;
23288;SDS011;11813;50.834;4.280;2022-12-11T09:22:19;45.47;;;20.07;;
23288;SDS011;11813;50.834;4.280;2022-12-11T09:24:44;39.23;;;17.37;;
23288;SDS011;11813;50.834;4.280;2022-12-11T09:27:11;40.73;;;18.93;;
23288;SDS011;11813;50.834;4.280;2022-12-11T09:29:37;38.33;;;17.03;;
23288;SDS011;11813;50.834;4.280;2022-12-11T09:32:03;45.37;;;21.50;;
23288;SDS011;11813;50.834;4.280;2022-12-11T09:34:29;47.53;;;23.27;;
23288;SDS011;11813;50.834;4.280;2022-12-11T09:36:54;44.73;;;21.53;;
23288;SDS011;11813;50.834;4.280;2022-12-11T09:39:20;42.00;;;19.97;;
23288;SDS011;11813;50.834;4.280;2022-12-11T09:46:59;79.07;;;34.60;;
23288;SDS011;11813;50.834;4.280;2022-12-11T09:49:36;45.77;;;20.23;;
23288;SDS011;11813;50.834;4.280;2022-12-11T09:52:11;42.57;;;17.73;;
23288;SDS011;11813;50.834;4.280;2022-12-11T09:54:58;39.90;;;16.67;;
23288;SDS011;11813;50.834;4.280;2022-12-11T10:05:49;39.23;;;18.10;;
23288;SDS011;11813;50.834;4.280;2022-12-11T10:14:20;50.83;;;20.40;;
23288;SDS011;11813;50.834;4.280;2022-12-11T10:17:12;38.80;;;18.00;;
23288;SDS011;11813;50.834;4.280;2022-12-11T10:19:44;43.90;;;16.83;;
23288;SDS011;11813;50.834;4.280;2022-12-11T10:22:17;43.00;;;16.97;;
23288;SDS011;11813;50.834;4.280;2022-12-11T10:24:52;41.80;;;17.67;;
23288;SDS011;11813;50.834;4.280;2022-12-11T10:27:21;52.23;;;19.43;;
23288;SDS011;11813;50.834;4.280;2022-12-11T10:29:55;36.73;;;15.17;;
23288;SDS011;11813;50.834;4.280;2022-12-11T10:35:35;42.00;;;16.43;;
23288;SDS011;11813;50.834;4.280;2022-12-11T10:38:13;41.50;;;16.27;;
23288;SDS011;11813;50.834;4.280;2022-12-11T10:40:50;62.43;;;25.30;;
23288;SDS011;11813;50.834;4.280;2022-12-11T10:43:18;40.10;;;15.97;;
23288;SDS011;11813;50.834;4.280;2022-12-11T10:45:50;40.17;;;16.07;;
23288;SDS011;11813;50.834;4.280;2022-12-11T10:48:17;42.60;;;17.40;;
23288;SDS011;11813;50.834;4.280;2022-12-11T10:50:42;44.23;;;17.10;;
23288;SDS011;11813;50.834;4.280;2022-12-11T10:53:19;35.83;;;15.30;;
23288;SDS011;11813;50.834;4.280;2022-12-11T10:55:45;41.57;;;15.80;;
23288;SDS011;11813;50.834;4.280;2022-12-11T10:58:16;39.07;;;15.83;;
23288;SDS011;11813;50.834;4.280;2022-12-11T11:01:05;40.83;;;17.07;;
23288;SDS011;11813;50.834;4.280;2022-12-11T11:03:42;39.70;;;14.67;;
23288;SDS011;11813;50.834;4.280;2022-12-11T11:06:18;36.33;;;14.70;;
23288;SDS011;11813;50.834;4.280;2022-12-11T11:08:46;36.30;;;14.63;;
23288;SDS011;11813;50.834;4.280;2022-12-11T11:11:19;29.50;;;14.43;;
23288;SDS011;11813;50.834;4.280;2022-12-11T11:13:50;34.13;;;14.13;;
23288;SDS011;11813;50.834;4.280;2022-12-11T11:16:17;32.43;;;13.93;;
23288;SDS011;11813;50.834;4.280;2022-12-11T11:18:52;36.47;;;14.70;;
23288;SDS011;11813;50.834;4.280;2022-12-11T11:21:20;36.97;;;14.90;;
23288;SDS011;11813;50.834;4.280;2022-12-11T11:23:48;31.27;;;13.30;;
23288;SDS011;11813;50.834;4.280;2022-12-11T11:26:15;34.83;;;13.77;;
23288;SDS011;11813;50.834;4.280;2022-12-11T11:28:46;36.43;;;14.53;;
23288;SDS011;11813;50.834;4.280;2022-12-11T11:31:14;42.20;;;18.40;;
23288;SDS011;11813;50.834;4.280;2022-12-11T11:34:00;35.23;;;15.20;;
23288;SDS011;11813;50.834;4.280;2022-12-11T11:36:31;31.50;;;13.20;;
23288;SDS011;11813;50.834;4.280;2022-12-11T11:43:58;23.73;;;11.97;;
23288;SDS011;11813;50.834;4.280;2022-12-11T11:46:29;29.00;;;12.03;;
23288;SDS011;11813;50.834;4.280;2022-12-11T11:51:32;29.37;;;12.10;;
23288;SDS011;11813;50.834;4.280;2022-12-11T11:54:02;26.60;;;11.97;;
23288;SDS011;11813;50.834;4.280;2022-12-11T11:56:57;23.63;;;10.93;;
23288;SDS011;11813;50.834;4.280;2022-12-11T11:59:29;31.13;;;12.63;;
23288;SDS011;11813;50.834;4.280;2022-12-11T12:02:08;24.73;;;10.47;;
23288;SDS011;11813;50.834;4.280;2022-12-11T12:04:39;27.40;;;11.10;;
23288;SDS011;11813;50.834;4.280;2022-12-11T12:07:07;25.27;;;11.17;;
23288;SDS011;11813;50.834;4.280;2022-12-11T12:10:08;30.50;;;11.60;;
23288;SDS011;11813;50.834;4.280;2022-12-11T12:21:35;27.47;;;12.17;;
23288;SDS011;11813;50.834;4.280;2022-12-11T12:27:12;28.93;;;12.20;;
23288;SDS011;11813;50.834;4.280;2022-12-11T12:33:01;33.60;;;12.60;;
23288;SDS011;11813;50.834;4.280;2022-12-11T12:35:49;30.63;;;13.57;;
23288;SDS011;11813;50.834;4.280;2022-12-11T12:38:25;33.27;;;13.27;;
23288;SDS011;11813;50.834;4.280;2022-12-11T12:46:33;36.47;;;14.00;;
23288;SDS011;11813;50.834;4.280;2022-12-11T12:49:02;30.37;;;13.60;;
23288;SDS011;11813;50.834;4.280;2022-12-11T12:51:31;33.80;;;14.43;;
23288;SDS011;11813;50.834;4.280;2022-12-11T12:54:00;39.30;;;14.40;;
23288;SDS011;11813;50.834;4.280;2022-12-11T12:56:28;31.40;;;14.47;;
23288;SDS011;11813;50.834;4.280;2022-12-11T12:58:55;34.37;;;14.40;;
23288;SDS011;11813;50.834;4.280;2022-12-11T13:01:22;34.73;;;14.30;;
23288;SDS011;11813;50.834;4.280;2022-12-11T13:03:56;35.03;;;13.87;;
23288;SDS011;11813;50.834;4.280;2022-12-11T13:06:29;39.77;;;14.73;;
23288;SDS011;11813;50.834;4.280;2022-12-11T13:11:50;39.30;;;15.53;;
23288;SDS011;11813;50.834;4.280;2022-12-11T13:16:47;37.50;;;15.27;;
23288;SDS011;11813;50.834;4.280;2022-12-11T13:26:46;35.33;;;14.47;;
23288;SDS011;11813;50.834;4.280;2022-12-11T13:32:20;40.80;;;15.30;;
23288;SDS011;11813;50.834;4.280;2022-12-11T13:34:54;38.67;;;16.73;;
23288;SDS011;11813;50.834;4.280;2022-12-11T13:37:30;42.17;;;16.00;;
23288;SDS011;11813;50.834;4.280;2022-12-11T13:40:18;43.07;;;16.77;;
23288;SDS011;11813;50.834;4.280;2022-12-11T13:42:49;44.63;;;15.73;;
23288;SDS011;11813;50.834;4.280;2022-12-11T13:47:48;39.47;;;16.40;;
23288;SDS011;11813;50.834;4.280;2022-12-11T13:50:19;43.27;;;18.30;;
23288;SDS011;11813;50.834;4.280;2022-12-11T13:52:56;40.03;;;15.90;;
23288;SDS011;11813;50.834;4.280;2022-12-11T13:55:27;44.77;;;17.53;;
23288;SDS011;11813;50.834;4.280;2022-12-11T13:57:57;38.93;;;16.97;;
23288;SDS011;11813;50.834;4.280;2022-12-11T14:00:24;41.63;;;16.03;;
23288;SDS011;11813;50.834;4.280;2022-12-11T14:02:52;38.33;;;17.17;;
23288;SDS011;11813;50.834;4.280;2022-12-11T14:05:20;40.87;;;17.20;;
23288;SDS011;11813;50.834;4.280;2022-12-11T14:07:55;41.67;;;16.33;;
23288;SDS011;11813;50.834;4.280;2022-12-11T14:10:24;44.10;;;17.50;;
23288;SDS011;11813;50.834;4.280;2022-12-11T14:15:23;40.37;;;17.33;;
23288;SDS011;11813;50.834;4.280;2022-12-11T14:17:51;44.10;;;16.10;;
23288;SDS011;11813;50.834;4.280;2022-12-11T14:20:19;45.03;;;17.80;;
23288;SDS011;11813;50.834;4.280;2022-12-11T14:22:47;39.73;;;17.23;;
23288;SDS011;11813;50.834;4.280;2022-12-11T14:25:23;42.73;;;16.27;;
23288;SDS011;11813;50.834;4.280;2022-12-11T14:27:54;39.83;;;17.13;;
23288;SDS011;11813;50.834;4.280;2022-12-11T14:30:21;46.87;;;18.13;;
23288;SDS011;11813;50.834;4.280;2022-12-11T14:32:49;47.27;;;18.57;;
23288;SDS011;11813;50.834;4.280;2022-12-11T14:35:21;39.67;;;16.93;;
23288;SDS011;11813;50.834;4.280;2022-12-11T14:37:56;42.13;;;15.93;;
23288;SDS011;11813;50.834;4.280;2022-12-11T14:40:34;35.50;;;16.03;;
23288;SDS011;11813;50.834;4.280;2022-12-11T14:43:06;41.80;;;17.73;;
23288;SDS011;11813;50.834;4.280;2022-12-11T14:45:56;47.20;;;17.53;;
23288;SDS011;11813;50.834;4.280;2022-12-11T14:48:26;39.67;;;16.80;;
23288;SDS011;11813;50.834;4.280;2022-12-11T14:50:57;37.80;;;15.93;;
23288;SDS011;11813;50.834;4.280;2022-12-11T14:53:30;39.07;;;16.07;;
23288;SDS011;11813;50.834;4.280;2022-12-11T14:56:05;37.40;;;16.67;;
23288;SDS011;11813;50.834;4.280;2022-12-11T14:58:36;36.00;;;16.20;;
23288;SDS011;11813;50.834;4.280;2022-12-11T15:01:22;36.80;;;17.67;;
23288;SDS011;11813;50.834;4.280;2022-12-11T15:04:01;37.90;;;15.43;;
23288;SDS011;11813;50.834;4.280;2022-12-11T15:08:53;34.13;;;15.87;;
23288;SDS011;11813;50.834;4.280;2022-12-11T15:11:19;41.50;;;16.90;;
23288;SDS011;11813;50.834;4.280;2022-12-11T15:13:50;36.00;;;15.10;;
23288;SDS011;11813;50.834;4.280;2022-12-11T15:16:16;36.80;;;15.27;;
23288;SDS011;11813;50.834;4.280;2022-12-11T15:18:42;36.13;;;16.23;;
23288;SDS011;11813;50.834;4.280;2022-12-11T15:21:15;33.60;;;14.30;;
23288;SDS011;11813;50.834;4.280;2022-12-11T15:26:13;30.03;;;13.53;;
23288;SDS011;11813;50.834;4.280;2022-12-11T15:28:38;30.33;;;14.03;;
23288;SDS011;11813;50.834;4.280;2022-12-11T15:33:31;26.03;;;11.83;;
23288;SDS011;11813;50.834;4.280;2022-12-11T15:35:58;25.30;;;12.27;;
23288;SDS011;11813;50.834;4.280;2022-12-11T15:38:30;25.40;;;12.67;;
23288;SDS011;11813;50.834;4.280;2022-12-11T15:41:00;33.70;;;14.53;;
23288;SDS011;11813;50.834;4.280;2022-12-11T15:43:27;24.40;;;12.87;;
23288;SDS011;11813;50.834;4.280;2022-12-11T15:45:55;27.77;;;13.63;;
23288;SDS011;11813;50.834;4.280;2022-12-11T15:48:21;23.40;;;13.60;;
23288;SDS011;11813;50.834;4.280;2022-12-11T15:50:47;23.80;;;12.70;;
23288;SDS011;11813;50.834;4.280;2022-12-11T15:53:12;24.77;;;12.83;;
23288;SDS011;11813;50.834;4.280;2022-12-11T15:55:38;23.80;;;12.83;;
23288;SDS011;11813;50.834;4.280;2022-12-11T15:58:04;23.07;;;12.00;;
23288;SDS011;11813;50.834;4.280;2022-12-11T16:00:33;25.03;;;12.13;;
23288;SDS011;11813;50.834;4.280;2022-12-11T16:02:59;21.63;;;11.57;;
23288;SDS011;11813;50.834;4.280;2022-12-11T16:05:25;19.53;;;11.77;;